Time;durP1;ratioP1;P1;durP2;ratioP2;P2;SDS_P1;SDS_P2;PMS_P1;PMS_P2;Temp;Humidity;BMP_temperature;BMP_pressure;BME280_temperature;BME280_humidity;BME280_pressure;Samples;Min_cycle;Max_cycle;Signal;HPM_P1;HPM_P2
2021/12/24 00:00:33;;;;;;;30.98;2.88;;;;;;;;;;5042428;28;20029;-49
2021/12/24 00:02:59;;;;;;;22.30;2.17;;;;;;;;;;5034412;28;20076;-52
2021/12/24 00:05:25;;;;;;;27.33;2.60;;;;;;;;;;5035497;28;20056;-53
2021/12/24 00:07:51;;;;;;;10.65;1.85;;;;;;;;;;5041842;28;20053;-51
2021/12/24 00:10:17;;;;;;;19.33;2.05;;;;;;;;;;5031291;28;20029;-53
2021/12/24 00:12:54;;;;;;;23.20;2.65;;;;;;;;;;5033401;28;20090;-51
2021/12/24 00:15:48;;;;;;;25.02;3.33;;;;;;;;;;5038590;28;20057;-53
2021/12/24 00:18:19;;;;;;;42.10;3.63;;;;;;;;;;5034013;28;20558;-53
2021/12/24 00:37:10;;;;;;;36.42;3.20;;;;;;;;;;5036578;28;20087;-51
2021/12/24 00:39:43;;;;;;;26.38;3.50;;;;;;;;;;5041078;28;20037;-53
2021/12/24 00:42:09;;;;;;;24.92;2.65;;;;;;;;;;5033678;28;20037;-52
2021/12/24 00:44:35;;;;;;;38.67;3.95;;;;;;;;;;5039267;28;20029;-50
2021/12/24 00:47:01;;;;;;;33.50;3.65;;;;;;;;;;5044684;28;20484;-51
2021/12/24 00:49:27;;;;;;;23.23;2.92;;;;;;;;;;5039741;28;20036;-54
2021/12/24 00:52:07;;;;;;;40.15;3.30;;;;;;;;;;5038511;28;20086;-53
2021/12/24 00:57:20;;;;;;;29.00;2.88;;;;;;;;;;5038354;28;20502;-48
2021/12/24 00:59:45;;;;;;;23.77;2.50;;;;;;;;;;5032486;28;20128;-48
2021/12/24 01:02:11;;;;;;;41.63;2.92;;;;;;;;;;5034901;28;20033;-52
2021/12/24 01:04:37;;;;;;;26.52;2.83;;;;;;;;;;5033170;28;20139;-53
2021/12/24 01:07:02;;;;;;;21.50;2.53;;;;;;;;;;5034473;28;20140;-53
2021/12/24 01:09:28;;;;;;;30.15;2.67;;;;;;;;;;5034741;28;20032;-51
2021/12/24 01:11:54;;;;;;;36.40;3.65;;;;;;;;;;5036396;28;20583;-53
2021/12/24 01:14:21;;;;;;;35.30;3.28;;;;;;;;;;5036839;28;20024;-53
2021/12/24 01:17:16;;;;;;;23.88;3.15;;;;;;;;;;5034455;28;20393;-52
2021/12/24 01:19:33;;;;;;;28.23;3.42;;;;;;;;;;5034719;28;20068;-55
2021/12/24 01:24:40;;;;;;;38.78;4.22;;;;;;;;;;5034031;28;20473;-49
2021/12/24 01:29:49;;;;;;;25.42;3.13;;;;;;;;;;5038465;28;20037;-49
2021/12/24 01:37:58;;;;;;;40.20;3.53;;;;;;;;;;5040145;28;20033;-48
2021/12/24 01:41:20;;;;;;;29.10;3.53;;;;;;;;;;5031205;28;20076;-48
2021/12/24 01:43:11;;;;;;;28.00;2.63;;;;;;;;;;5030683;28;20081;-51
2021/12/24 01:45:37;;;;;;;27.85;3.15;;;;;;;;;;5030017;28;20104;-48
2021/12/24 01:48:07;;;;;;;34.78;3.53;;;;;;;;;;5029731;28;20033;-51
2021/12/24 01:50:34;;;;;;;17.08;3.22;;;;;;;;;;5034510;28;20171;-53
2021/12/24 01:53:04;;;;;;;19.95;3.22;;;;;;;;;;5033242;28;20028;-53
2021/12/24 01:55:30;;;;;;;41.03;4.10;;;;;;;;;;5033277;28;20025;-52
2021/12/24 01:57:56;;;;;;;25.70;3.70;;;;;;;;;;5033384;28;20365;-48
2021/12/24 02:00:36;;;;;;;29.85;3.47;;;;;;;;;;5040972;28;20783;-51
2021/12/24 02:03:03;;;;;;;25.92;2.95;;;;;;;;;;5041630;28;20025;-50
2021/12/24 02:05:31;;;;;;;25.35;3.50;;;;;;;;;;5038760;28;20703;-50
2021/12/24 02:07:58;;;;;;;38.58;3.95;;;;;;;;;;5038244;28;20593;-49
2021/12/24 02:10:24;;;;;;;19.92;3.20;;;;;;;;;;5029831;28;20029;-52
2021/12/24 02:12:50;;;;;;;26.35;3.80;;;;;;;;;;5038364;28;20024;-52
2021/12/24 02:28:56;;;;;;;34.78;4.32;;;;;;;;;;5043528;28;20450;-49
2021/12/24 02:31:25;;;;;;;34.30;4.63;;;;;;;;;;5035487;28;20029;-51
2021/12/24 02:33:50;;;;;;;24.20;3.58;;;;;;;;;;5037794;28;20032;-51
2021/12/24 02:36:18;;;;;;;28.52;4.43;;;;;;;;;;5037282;28;20034;-51
2021/12/24 02:38:44;;;;;;;34.95;4.95;;;;;;;;;;5035438;28;20033;-49
2021/12/24 02:41:10;;;;;;;26.45;4.32;;;;;;;;;;5030520;28;20035;-49
2021/12/24 02:43:37;;;;;;;33.28;4.22;;;;;;;;;;5035102;28;20029;-52
2021/12/24 02:46:14;;;;;;;28.63;4.72;;;;;;;;;;5035681;28;20485;-50
2021/12/24 02:54:45;;;;;;;23.85;4.05;;;;;;;;;;4982627;28;20046;-53
2021/12/24 02:57:15;;;;;;;26.33;4.40;;;;;;;;;;5022118;28;20041;-53
2021/12/24 02:59:48;;;;;;;28.77;4.60;;;;;;;;;;5016917;28;20045;-50
2021/12/24 03:02:13;;;;;;;35.05;5.47;;;;;;;;;;5030464;28;20120;-54
2021/12/24 03:04:39;;;;;;;30.73;5.30;;;;;;;;;;5032273;28;20132;-53
2021/12/24 03:07:04;;;;;;;22.58;4.70;;;;;;;;;;5036975;28;20514;-51
2021/12/24 03:09:30;;;;;;;27.52;5.30;;;;;;;;;;5030515;28;20280;-52
2021/12/24 03:11:55;;;;;;;25.98;5.47;;;;;;;;;;5031261;28;20037;-48
2021/12/24 03:14:21;;;;;;;26.27;5.03;;;;;;;;;;5034006;28;20118;-50
2021/12/24 03:16:55;;;;;;;27.77;5.15;;;;;;;;;;5032434;28;20120;-50
2021/12/24 03:19:25;;;;;;;29.35;5.28;;;;;;;;;;5034916;28;20029;-50
2021/12/24 03:21:57;;;;;;;36.35;5.00;;;;;;;;;;5032666;28;20040;-53
2021/12/24 03:26:48;;;;;;;22.85;5.13;;;;;;;;;;5036472;28;20519;-48
2021/12/24 03:29:17;;;;;;;26.83;5.32;;;;;;;;;;5041779;28;20037;-51
2021/12/24 03:31:44;;;;;;;32.47;5.75;;;;;;;;;;5031322;28;20029;-51
2021/12/24 03:34:13;;;;;;;32.80;5.38;;;;;;;;;;5039306;28;20055;-51
2021/12/24 03:36:38;;;;;;;30.27;5.43;;;;;;;;;;5036640;28;20147;-50
2021/12/24 03:39:06;;;;;;;32.10;5.53;;;;;;;;;;5037633;28;20124;-50
2021/12/24 03:41:32;;;;;;;38.85;6.85;;;;;;;;;;5030401;28;20614;-48
2021/12/24 03:43:58;;;;;;;31.05;6.03;;;;;;;;;;5028683;28;20372;-50
2021/12/24 03:46:33;;;;;;;25.92;5.28;;;;;;;;;;5036269;28;20060;-48
2021/12/24 03:49:04;;;;;;;31.35;5.97;;;;;;;;;;5032100;28;20030;-49
2021/12/24 03:57:16;;;;;;;27.45;5.18;;;;;;;;;;5036837;28;20043;-48
2021/12/24 03:59:41;;;;;;;35.38;6.15;;;;;;;;;;5037844;28;20070;-49
2021/12/24 04:02:07;;;;;;;32.83;5.97;;;;;;;;;;5038417;28;20041;-54
2021/12/24 04:04:33;;;;;;;26.40;5.95;;;;;;;;;;5032295;28;20527;-49
2021/12/24 04:06:58;;;;;;;34.90;5.90;;;;;;;;;;5037945;28;20056;-51
2021/12/24 04:09:26;;;;;;;30.05;5.68;;;;;;;;;;5034765;28;20033;-55
2021/12/24 04:11:52;;;;;;;36.35;5.85;;;;;;;;;;5041446;28;20025;-51
2021/12/24 04:14:17;;;;;;;31.70;6.55;;;;;;;;;;5034184;28;20036;-51
2021/12/24 04:16:43;;;;;;;40.22;6.85;;;;;;;;;;5032862;28;20033;-52
2021/12/24 04:24:53;;;;;;;48.88;10.85;;;;;;;;;;5037658;28;20068;-52
2021/12/24 04:27:26;;;;;;;38.63;8.10;;;;;;;;;;5039944;28;20124;-53
2021/12/24 04:30:02;;;;;;;38.88;9.93;;;;;;;;;;5042267;28;20033;-54
2021/12/24 04:32:45;;;;;;;31.08;7.75;;;;;;;;;;5041203;28;20403;-50
2021/12/24 04:35:56;;;;;;;37.60;8.68;;;;;;;;;;5035600;28;20037;-52
2021/12/24 04:51:31;;;;;;;33.97;7.53;;;;;;;;;;5037299;28;20147;-52
2021/12/24 05:04:45;;;;;;;39.33;7.65;;;;;;;;;;5032679;28;20037;-52
2021/12/24 05:07:31;;;;;;;28.13;5.47;;;;;;;;;;5033100;28;20072;-53
2021/12/24 05:09:58;;;;;;;31.85;6.10;;;;;;;;;;5033785;28;20053;-53
2021/12/24 05:12:24;;;;;;;26.88;6.95;;;;;;;;;;5037888;28;20033;-53
2021/12/24 05:14:49;;;;;;;36.80;7.25;;;;;;;;;;5034696;28;20059;-53
2021/12/24 05:17:23;;;;;;;30.40;6.63;;;;;;;;;;5038460;28;20044;-51
2021/12/24 05:22:33;;;;;;;25.08;7.38;;;;;;;;;;5040240;28;20510;-53
2021/12/24 05:25:00;;;;;;;45.83;7.00;;;;;;;;;;5035624;28;20076;-53
2021/12/24 05:27:26;;;;;;;29.10;7.50;;;;;;;;;;5038631;28;20025;-53
2021/12/24 05:29:52;;;;;;;39.60;7.90;;;;;;;;;;5035548;28;20041;-53
2021/12/24 05:32:18;;;;;;;41.00;8.05;;;;;;;;;;5037079;28;20028;-54
2021/12/24 05:34:43;;;;;;;36.17;7.50;;;;;;;;;;5039409;28;20028;-52
2021/12/24 05:37:09;;;;;;;32.40;8.23;;;;;;;;;;5036302;28;20372;-51
2021/12/24 05:39:35;;;;;;;44.45;8.35;;;;;;;;;;5037336;28;20132;-51
2021/12/24 05:42:01;;;;;;;50.17;7.72;;;;;;;;;;5036096;28;20511;-49
2021/12/24 05:44:27;;;;;;;32.97;6.45;;;;;;;;;;5034849;28;20126;-50
2021/12/24 05:46:52;;;;;;;26.50;6.05;;;;;;;;;;5032119;28;20492;-51
2021/12/24 05:49:18;;;;;;;31.52;5.60;;;;;;;;;;5035826;28;20186;-52
2021/12/24 05:51:44;;;;;;;36.03;5.78;;;;;;;;;;5039439;28;20128;-48
2021/12/24 05:54:09;;;;;;;19.98;4.57;;;;;;;;;;5039103;28;20033;-50
2021/12/24 05:56:35;;;;;;;25.25;4.30;;;;;;;;;;5038443;28;20487;-49
2021/12/24 05:59:01;;;;;;;19.08;4.30;;;;;;;;;;5039520;28;20064;-50
2021/12/24 06:01:26;;;;;;;33.75;4.20;;;;;;;;;;5037041;28;20037;-53
2021/12/24 06:03:52;;;;;;;37.15;4.82;;;;;;;;;;5035413;28;20040;-50
2021/12/24 06:06:17;;;;;;;18.10;3.45;;;;;;;;;;5038312;28;20443;-50
2021/12/24 06:08:43;;;;;;;23.88;4.18;;;;;;;;;;5034758;28;20057;-52
2021/12/24 06:11:08;;;;;;;20.27;3.70;;;;;;;;;;5034027;28;20087;-53
2021/12/24 06:13:36;;;;;;;25.30;4.40;;;;;;;;;;5035729;28;20037;-52
2021/12/24 06:16:01;;;;;;;43.45;4.28;;;;;;;;;;5033877;28;20492;-51
2021/12/24 06:18:29;;;;;;;24.77;3.25;;;;;;;;;;5029765;28;20029;-51
2021/12/24 06:20:58;;;;;;;20.05;3.22;;;;;;;;;;5035370;28;20090;-49
2021/12/24 06:23:26;;;;;;;25.40;3.30;;;;;;;;;;5032077;28;20436;-51
2021/12/24 06:25:55;;;;;;;25.58;3.42;;;;;;;;;;5035285;28;20416;-51
2021/12/24 06:28:22;;;;;;;25.20;3.70;;;;;;;;;;5036140;28;20127;-53
2021/12/24 06:30:48;;;;;;;19.83;3.05;;;;;;;;;;5031102;28;20561;-51
2021/12/24 06:33:14;;;;;;;21.05;3.17;;;;;;;;;;5033591;28;20059;-53
2021/12/24 06:35:39;;;;;;;30.20;3.67;;;;;;;;;;5032208;28;20061;-50
2021/12/24 06:38:06;;;;;;;26.83;3.40;;;;;;;;;;5034447;28;20029;-49
2021/12/24 06:40:32;;;;;;;30.13;3.00;;;;;;;;;;5033090;28;20179;-48
2021/12/24 06:42:58;;;;;;;42.92;4.53;;;;;;;;;;5032522;28;20036;-49
2021/12/24 06:45:24;;;;;;;44.80;3.25;;;;;;;;;;5032422;28;20389;-53
2021/12/24 06:47:51;;;;;;;41.88;3.75;;;;;;;;;;5031855;28;20021;-52
2021/12/24 06:50:17;;;;;;;43.08;3.53;;;;;;;;;;5028763;28;20060;-49
2021/12/24 06:52:42;;;;;;;44.05;3.70;;;;;;;;;;5032051;28;20060;-50
2021/12/24 06:55:10;;;;;;;41.03;3.13;;;;;;;;;;5031989;28;20036;-49
2021/12/24 06:57:36;;;;;;;45.78;4.25;;;;;;;;;;5034773;28;20495;-49
2021/12/24 07:00:03;;;;;;;32.38;3.13;;;;;;;;;;5030879;28;20411;-49
2021/12/24 07:02:29;;;;;;;46.72;4.07;;;;;;;;;;5033040;28;20021;-49
2021/12/24 07:04:54;;;;;;;52.90;4.28;;;;;;;;;;5033180;28;20021;-49
2021/12/24 07:07:20;;;;;;;26.27;2.75;;;;;;;;;;5038521;28;20353;-49
2021/12/24 07:09:45;;;;;;;39.95;3.95;;;;;;;;;;5031196;28;20046;-49
2021/12/24 07:12:13;;;;;;;42.08;3.75;;;;;;;;;;5034872;28;20497;-49
2021/12/24 07:14:40;;;;;;;33.72;3.33;;;;;;;;;;5027741;28;20140;-52
2021/12/24 07:17:06;;;;;;;42.63;5.20;;;;;;;;;;5033254;28;20029;-51
2021/12/24 07:19:32;;;;;;;36.63;3.28;;;;;;;;;;5032010;28;20039;-51
2021/12/24 07:21:57;;;;;;;63.63;4.97;;;;;;;;;;5035726;28;20060;-50
2021/12/24 07:24:23;;;;;;;50.35;4.78;;;;;;;;;;5037424;28;20128;-51
2021/12/24 07:26:48;;;;;;;50.97;5.40;;;;;;;;;;5027819;28;20033;-53
2021/12/24 07:29:14;;;;;;;48.97;5.15;;;;;;;;;;5036239;28;20117;-49
2021/12/24 07:31:39;;;;;;;57.95;4.78;;;;;;;;;;5031044;28;20470;-53
2021/12/24 07:34:05;;;;;;;58.88;4.85;;;;;;;;;;5033051;28;20037;-53
2021/12/24 07:36:30;;;;;;;75.35;5.40;;;;;;;;;;5030995;28;20040;-51
2021/12/24 07:38:56;;;;;;;57.60;5.22;;;;;;;;;;5026343;28;20051;-49
2021/12/24 07:41:21;;;;;;;51.90;4.35;;;;;;;;;;5037991;28;20036;-51
2021/12/24 07:43:47;;;;;;;77.03;4.75;;;;;;;;;;5038945;28;20108;-49
2021/12/24 07:46:13;;;;;;;64.30;5.55;;;;;;;;;;5036041;28;20416;-52
2021/12/24 07:48:48;;;;;;;73.57;5.00;;;;;;;;;;5033601;28;20508;-50
2021/12/24 07:54:00;;;;;;;58.10;4.03;;;;;;;;;;5034353;28;20596;-50
2021/12/24 07:56:30;;;;;;;51.95;4.15;;;;;;;;;;5039174;28;20458;-50
2021/12/24 07:58:56;;;;;;;62.17;4.07;;;;;;;;;;5036234;28;20116;-50
2021/12/24 08:01:23;;;;;;;73.63;5.47;;;;;;;;;;5037144;28;20025;-49
2021/12/24 08:03:51;;;;;;;78.47;5.20;;;;;;;;;;5033509;28;20482;-52
2021/12/24 08:06:17;;;;;;;83.75;5.47;;;;;;;;;;5039065;28;20064;-51
2021/12/24 08:08:42;;;;;;;89.88;5.32;;;;;;;;;;5039951;28;20473;-50
2021/12/24 08:11:08;;;;;;;72.13;4.15;;;;;;;;;;5035500;28;20561;-51
2021/12/24 08:13:33;;;;;;;58.30;4.55;;;;;;;;;;5038048;28;20035;-52
2021/12/24 08:16:00;;;;;;;57.92;4.03;;;;;;;;;;5037098;28;22346;-53
2021/12/24 08:18:26;;;;;;;62.08;4.97;;;;;;;;;;5032533;28;20039;-51
2021/12/24 08:20:51;;;;;;;68.30;4.57;;;;;;;;;;5037602;28;20033;-53
2021/12/24 08:23:17;;;;;;;59.70;4.28;;;;;;;;;;5038588;28;20034;-50
2021/12/24 08:25:42;;;;;;;88.38;4.82;;;;;;;;;;5034509;28;20036;-50
2021/12/24 08:28:08;;;;;;;72.40;5.53;;;;;;;;;;5033970;28;20033;-53
2021/12/24 08:30:33;;;;;;;88.15;5.22;;;;;;;;;;5041062;28;20424;-48
2021/12/24 08:33:01;;;;;;;63.95;4.55;;;;;;;;;;5035327;28;20036;-52
2021/12/24 08:35:27;;;;;;;65.55;5.25;;;;;;;;;;5037660;28;20103;-53
2021/12/24 08:37:53;;;;;;;80.70;5.07;;;;;;;;;;5039116;28;20039;-51
2021/12/24 08:40:19;;;;;;;70.00;4.78;;;;;;;;;;5035488;28;20112;-52
2021/12/24 08:42:47;;;;;;;83.93;5.00;;;;;;;;;;5035831;28;20035;-49
2021/12/24 08:45:13;;;;;;;80.13;4.43;;;;;;;;;;5039261;28;20532;-53
2021/12/24 08:47:39;;;;;;;66.63;6.80;;;;;;;;;;5042946;28;20064;-52
2021/12/24 08:50:07;;;;;;;61.17;5.22;;;;;;;;;;5039621;28;20034;-51
2021/12/24 08:52:33;;;;;;;87.30;5.45;;;;;;;;;;5038098;28;20032;-49
2021/12/24 08:54:58;;;;;;;88.07;5.30;;;;;;;;;;5037061;28;20507;-50
2021/12/24 08:57:24;;;;;;;77.13;5.00;;;;;;;;;;5041608;28;20029;-55
2021/12/24 08:59:50;;;;;;;54.55;3.97;;;;;;;;;;5035198;28;20021;-51
2021/12/24 09:02:16;;;;;;;56.40;4.22;;;;;;;;;;5041652;28;20493;-48
2021/12/24 09:04:42;;;;;;;53.05;4.15;;;;;;;;;;5040321;28;20531;-51
2021/12/24 09:07:07;;;;;;;65.68;4.93;;;;;;;;;;5041414;28;20037;-49
2021/12/24 09:09:35;;;;;;;75.65;4.80;;;;;;;;;;5032129;28;20045;-52
2021/12/24 09:12:01;;;;;;;62.42;4.75;;;;;;;;;;5038449;28;20033;-53
2021/12/24 09:14:26;;;;;;;54.05;5.72;;;;;;;;;;5033301;28;20034;-53
2021/12/24 09:16:53;;;;;;;70.40;6.22;;;;;;;;;;5032959;28;20025;-48
2021/12/24 09:19:23;;;;;;;61.55;4.70;;;;;;;;;;5030701;28;20029;-53
2021/12/24 09:21:50;;;;;;;67.95;5.40;;;;;;;;;;5039814;28;20032;-51
2021/12/24 09:24:18;;;;;;;93.50;5.85;;;;;;;;;;5028410;28;20179;-53
2021/12/24 09:26:44;;;;;;;78.65;5.32;;;;;;;;;;5019836;28;20138;-51
2021/12/24 09:29:11;;;;;;;47.40;5.03;;;;;;;;;;5037083;28;20029;-51
2021/12/24 09:31:37;;;;;;;70.93;5.43;;;;;;;;;;5035587;28;20048;-51
2021/12/24 09:34:04;;;;;;;76.45;7.20;;;;;;;;;;5038542;28;20082;-51
2021/12/24 09:36:30;;;;;;;69.18;4.30;;;;;;;;;;5036690;28;20029;-53
2021/12/24 09:39:03;;;;;;;82.38;7.20;;;;;;;;;;5036850;28;20033;-53
2021/12/24 09:41:29;;;;;;;80.75;5.63;;;;;;;;;;5028463;28;20444;-53
2021/12/24 09:43:57;;;;;;;73.60;4.78;;;;;;;;;;5032877;28;20194;-53
2021/12/24 09:46:25;;;;;;;67.30;5.05;;;;;;;;;;5031750;28;20021;-51
2021/12/24 09:48:50;;;;;;;112.72;7.72;;;;;;;;;;5036551;28;20174;-49
2021/12/24 09:51:16;;;;;;;82.78;5.15;;;;;;;;;;5037497;28;20119;-51
2021/12/24 09:53:42;;;;;;;74.57;5.65;;;;;;;;;;5037122;28;20032;-50
2021/12/24 09:56:07;;;;;;;72.50;5.80;;;;;;;;;;5041508;28;20569;-49
2021/12/24 09:58:33;;;;;;;59.17;4.22;;;;;;;;;;5036710;28;20024;-49
2021/12/24 10:00:59;;;;;;;81.65;6.40;;;;;;;;;;5034472;28;20033;-52
2021/12/24 10:03:33;;;;;;;58.83;4.50;;;;;;;;;;5039813;28;20127;-52
2021/12/24 10:05:59;;;;;;;76.93;6.93;;;;;;;;;;5036470;28;20376;-50
2021/12/24 10:08:26;;;;;;;45.38;4.93;;;;;;;;;;5033003;28;20196;-52
2021/12/24 10:11:00;;;;;;;81.25;5.07;;;;;;;;;;5031061;28;20025;-51
2021/12/24 10:13:36;;;;;;;38.35;4.13;;;;;;;;;;5034936;28;20571;-51
2021/12/24 10:16:06;;;;;;;54.05;5.45;;;;;;;;;;5033502;28;20037;-50
2021/12/24 10:18:51;;;;;;;57.33;5.03;;;;;;;;;;5031233;28;20033;-51
2021/12/24 10:21:35;;;;;;;45.15;3.10;;;;;;;;;;5030834;28;20104;-49
2021/12/24 10:24:13;;;;;;;68.43;5.57;;;;;;;;;;5034040;28;20151;-51
2021/12/24 10:26:44;;;;;;;52.42;4.18;;;;;;;;;;5029980;28;20025;-52
2021/12/24 10:29:13;;;;;;;56.72;5.55;;;;;;;;;;5036179;28;20033;-49
2021/12/24 10:31:43;;;;;;;43.65;3.88;;;;;;;;;;5033387;28;20022;-52
2021/12/24 10:34:08;;;;;;;60.42;5.22;;;;;;;;;;5030082;28;20115;-50
2021/12/24 10:36:54;;;;;;;86.95;5.72;;;;;;;;;;5034749;28;20180;-55
2021/12/24 10:39:22;;;;;;;65.13;5.78;;;;;;;;;;5039316;28;20396;-50
2021/12/24 10:41:50;;;;;;;53.00;5.15;;;;;;;;;;5031353;28;20033;-53
2021/12/24 10:44:22;;;;;;;62.47;6.32;;;;;;;;;;5032016;28;20027;-51
2021/12/24 10:46:58;;;;;;;;;;;;;;;;;;5030875;28;20091;-53
2021/12/24 10:49:48;;;;;;;51.42;5.45;;;;;;;;;;5030449;28;19978;-53
2021/12/24 10:55:00;;;;;;;55.50;5.72;;;;;;;;;;5031888;28;20124;-50
2021/12/24 10:57:29;;;;;;;63.90;5.18;;;;;;;;;;5029668;28;20024;-51
2021/12/24 10:59:57;;;;;;;55.17;4.75;;;;;;;;;;5034050;28;20017;-50
2021/12/24 11:02:33;;;;;;;67.40;8.20;;;;;;;;;;5035382;28;20029;-50
2021/12/24 11:04:59;;;;;;;61.60;6.10;;;;;;;;;;5032629;28;20033;-51
2021/12/24 11:07:41;;;;;;;64.45;5.40;;;;;;;;;;5030185;28;20037;-53
2021/12/24 11:10:19;;;;;;;55.33;5.37;;;;;;;;;;5032855;28;20129;-51
2021/12/24 11:12:46;;;;;;;56.83;5.05;;;;;;;;;;5032646;28;20811;-51
2021/12/24 11:15:19;;;;;;;67.82;5.68;;;;;;;;;;5034170;28;20120;-50
2021/12/24 11:17:45;;;;;;;49.85;5.57;;;;;;;;;;5043439;28;20482;-49
2021/12/24 11:20:11;;;;;;;54.65;5.18;;;;;;;;;;5037990;28;20558;-51
2021/12/24 11:23:04;;;;;;;65.32;5.70;;;;;;;;;;5034714;28;20021;-51
2021/12/24 11:25:39;;;;;;;49.05;4.35;;;;;;;;;;5035811;28;20148;-51
2021/12/24 11:28:06;;;;;;;52.00;4.65;;;;;;;;;;5035033;28;20028;-53
2021/12/24 11:30:34;;;;;;;55.30;5.15;;;;;;;;;;5035101;28;20208;-51
2021/12/24 11:32:59;;;;;;;46.65;4.40;;;;;;;;;;5036704;28;20162;-50
2021/12/24 11:35:27;;;;;;;51.22;4.93;;;;;;;;;;5036043;28;20404;-53
2021/12/24 11:37:53;;;;;;;63.92;5.25;;;;;;;;;;5033500;28;20030;-52
2021/12/24 11:40:22;;;;;;;64.45;4.38;;;;;;;;;;5034490;28;20100;-53
2021/12/24 11:42:54;;;;;;;64.97;4.78;;;;;;;;;;5035348;28;20104;-54
2021/12/24 11:45:23;;;;;;;64.60;4.88;;;;;;;;;;5042342;28;20484;-49
2021/12/24 11:47:50;;;;;;;68.55;7.22;;;;;;;;;;5041106;28;20511;-53
2021/12/24 11:50:16;;;;;;;66.55;5.13;;;;;;;;;;5041241;28;20108;-54
2021/12/24 11:52:43;;;;;;;73.00;6.45;;;;;;;;;;5035504;28;20552;-53
2021/12/24 11:55:09;;;;;;;60.30;5.38;;;;;;;;;;5036922;28;20033;-53
2021/12/24 11:57:34;;;;;;;43.95;4.55;;;;;;;;;;5036520;28;20057;-53
2021/12/24 12:00:13;;;;;;;30.27;3.72;;;;;;;;;;5043743;28;20067;-50
2021/12/24 12:02:47;;;;;;;51.60;5.15;;;;;;;;;;5035586;28;20037;-53
2021/12/24 12:05:14;;;;;;;53.53;5.10;;;;;;;;;;5035538;28;20095;-51
2021/12/24 12:07:40;;;;;;;64.20;4.63;;;;;;;;;;5032825;28;20045;-49
2021/12/24 12:10:07;;;;;;;73.70;5.50;;;;;;;;;;5039672;28;20442;-53
2021/12/24 12:12:34;;;;;;;54.17;4.88;;;;;;;;;;5031235;28;20021;-50
2021/12/24 12:15:36;;;;;;;62.95;4.97;;;;;;;;;;5045077;28;20037;-48
2021/12/24 12:18:04;;;;;;;66.32;4.72;;;;;;;;;;5033342;28;20032;-52
2021/12/24 12:20:45;;;;;;;47.30;4.80;;;;;;;;;;5041419;28;20037;-54
2021/12/24 12:23:46;;;;;;;48.58;4.35;;;;;;;;;;5035114;28;20033;-53
2021/12/24 12:26:34;;;;;;;43.85;4.68;;;;;;;;;;5031825;28;20037;-51
2021/12/24 12:29:19;;;;;;;49.50;4.25;;;;;;;;;;5039851;28;20072;-52
2021/12/24 12:31:48;;;;;;;39.42;4.68;;;;;;;;;;5038521;28;20025;-49
2021/12/24 12:34:37;;;;;;;75.78;6.28;;;;;;;;;;5034722;28;20043;-50
2021/12/24 12:37:16;;;;;;;51.13;4.75;;;;;;;;;;5026815;28;20041;-51
2021/12/24 12:39:43;;;;;;;51.83;4.70;;;;;;;;;;5036520;28;20043;-54
2021/12/24 12:42:09;;;;;;;56.92;4.50;;;;;;;;;;5037993;28;20504;-51
2021/12/24 12:44:37;;;;;;;36.08;3.85;;;;;;;;;;5020742;28;20033;-52
2021/12/24 12:47:14;;;;;;;26.52;4.10;;;;;;;;;;5029727;28;20037;-51
2021/12/24 12:49:40;;;;;;;56.00;5.18;;;;;;;;;;5037103;28;20219;-53
2021/12/24 12:52:35;;;;;;;59.10;7.03;;;;;;;;;;5040702;28;20115;-53
2021/12/24 12:55:02;;;;;;;49.40;5.32;;;;;;;;;;5050370;28;20049;-52
2021/12/24 12:57:33;;;;;;;50.88;5.25;;;;;;;;;;5036283;28;20531;-52
2021/12/24 13:00:07;;;;;;;39.97;4.75;;;;;;;;;;5038529;28;20112;-51
2021/12/24 13:03:08;;;;;;;49.33;6.10;;;;;;;;;;5035295;28;20503;-49
2021/12/24 13:05:42;;;;;;;65.68;5.90;;;;;;;;;;5035123;28;20531;-49
2021/12/24 13:08:14;;;;;;;50.13;5.50;;;;;;;;;;5033290;28;20051;-53
2021/12/24 13:10:40;;;;;;;52.30;5.03;;;;;;;;;;5034128;28;20036;-49
2021/12/24 13:13:07;;;;;;;55.95;5.50;;;;;;;;;;5034578;28;20028;-49
2021/12/24 13:15:44;;;;;;;53.63;5.47;;;;;;;;;;5036189;28;20071;-52
2021/12/24 13:18:27;;;;;;;56.33;4.97;;;;;;;;;;5036345;28;20025;-51
2021/12/24 13:23:39;;;;;;;46.70;5.03;;;;;;;;;;5033409;28;20029;-50
2021/12/24 13:26:15;;;;;;;80.68;6.35;;;;;;;;;;5036402;28;20037;-53
2021/12/24 13:29:01;;;;;;;70.05;5.72;;;;;;;;;;5032709;28;20033;-51
2021/12/24 13:31:29;;;;;;;53.72;6.05;;;;;;;;;;5031796;28;20025;-52
2021/12/24 13:33:54;;;;;;;49.13;5.97;;;;;;;;;;5036208;28;20072;-50
2021/12/24 13:36:27;;;;;;;41.92;6.50;;;;;;;;;;5033043;28;20425;-51
2021/12/24 13:38:53;;;;;;;38.42;5.25;;;;;;;;;;5038056;28;20025;-49
2021/12/24 13:41:24;;;;;;;73.30;6.22;;;;;;;;;;5033007;28;20029;-53
2021/12/24 13:43:49;;;;;;;42.20;5.07;;;;;;;;;;5030172;28;20139;-52
2021/12/24 13:46:16;;;;;;;54.58;5.38;;;;;;;;;;5034836;28;20113;-52
2021/12/24 13:49:11;;;;;;;36.53;5.45;;;;;;;;;;5035504;28;20028;-53
2021/12/24 13:56:42;;;;;;;45.97;4.05;;;;;;;;;;5033045;28;20043;-53
2021/12/24 13:59:10;;;;;;;54.22;6.75;;;;;;;;;;5030358;28;20036;-53
2021/12/24 14:01:38;;;;;;;48.00;6.82;;;;;;;;;;5027983;28;20044;-53
2021/12/24 14:04:05;;;;;;;39.08;4.47;;;;;;;;;;5030736;28;20021;-52
2021/12/24 14:06:41;;;;;;;39.80;6.18;;;;;;;;;;5029898;28;20033;-49
2021/12/24 14:09:22;;;;;;;39.42;4.80;;;;;;;;;;5034146;28;20109;-50
2021/12/24 14:11:49;;;;;;;39.72;5.80;;;;;;;;;;5035070;28;20029;-50
2021/12/24 14:14:25;;;;;;;39.78;6.35;;;;;;;;;;5030271;28;20040;-48
2021/12/24 14:20:00;;;;;;;27.35;6.25;;;;;;;;;;5032772;28;20032;-49
2021/12/24 14:22:29;;;;;;;56.63;6.85;;;;;;;;;;5030923;28;20052;-49
2021/12/24 14:25:00;;;;;;;64.18;6.97;;;;;;;;;;5034094;28;20036;-48
2021/12/24 14:27:28;;;;;;;48.63;6.53;;;;;;;;;;5048256;28;20135;-54
2021/12/24 14:29:59;;;;;;;54.38;8.38;;;;;;;;;;5033072;28;20037;-50
2021/12/24 14:32:43;;;;;;;40.25;5.95;;;;;;;;;;5032182;28;20045;-47
2021/12/24 14:35:21;;;;;;;37.90;5.45;;;;;;;;;;5033195;28;20057;-48
2021/12/24 14:38:00;;;;;;;29.70;5.28;;;;;;;;;;5032180;28;20108;-49
2021/12/24 14:40:29;;;;;;;38.60;6.15;;;;;;;;;;5034091;28;20099;-50
2021/12/24 14:42:55;;;;;;;36.63;5.25;;;;;;;;;;5032951;28;20118;-50
2021/12/24 14:45:33;;;;;;;35.30;5.47;;;;;;;;;;5030586;28;20053;-49
2021/12/24 14:48:29;;;;;;;41.65;6.05;;;;;;;;;;5033510;28;20078;-49
2021/12/24 14:51:04;;;;;;;49.63;5.47;;;;;;;;;;5033484;28;20074;-51
2021/12/24 14:53:31;;;;;;;35.40;5.05;;;;;;;;;;5029388;28;20648;-50
2021/12/24 14:56:04;;;;;;;35.75;5.97;;;;;;;;;;5027298;28;20037;-53
2021/12/24 14:58:36;;;;;;;36.17;7.30;;;;;;;;;;5035467;28;20021;-52
2021/12/24 15:01:16;;;;;;;52.93;7.30;;;;;;;;;;5036366;28;20407;-49
2021/12/24 15:03:45;;;;;;;31.75;5.95;;;;;;;;;;5031947;28;20316;-53
2021/12/24 15:06:19;;;;;;;49.50;8.85;;;;;;;;;;5027786;28;20491;-53
2021/12/24 15:08:46;;;;;;;56.83;9.75;;;;;;;;;;5028298;28;20063;-53
2021/12/24 15:11:24;;;;;;;38.38;6.30;;;;;;;;;;5030658;28;20026;-53
2021/12/24 15:13:59;;;;;;;47.15;10.05;;;;;;;;;;5032809;28;20106;-50
2021/12/24 15:16:26;;;;;;;64.10;9.20;;;;;;;;;;5035159;28;20024;-51
2021/12/24 15:18:54;;;;;;;46.42;11.60;;;;;;;;;;5030489;28;20032;-49
2021/12/24 15:21:21;;;;;;;83.07;17.25;;;;;;;;;;5034674;28;20159;-53
2021/12/24 15:23:48;;;;;;;67.07;17.17;;;;;;;;;;5033612;28;20531;-49
2021/12/24 15:26:14;;;;;;;69.40;16.52;;;;;;;;;;5027061;28;20088;-51
2021/12/24 15:28:42;;;;;;;38.28;7.97;;;;;;;;;;5023750;28;20113;-52
2021/12/24 15:31:08;;;;;;;68.88;20.20;;;;;;;;;;5031984;28;20025;-50
2021/12/24 15:33:34;;;;;;;34.88;6.88;;;;;;;;;;5032909;28;20037;-49
2021/12/24 15:36:00;;;;;;;54.92;9.55;;;;;;;;;;5038007;28;20407;-50
2021/12/24 15:38:25;;;;;;;126.68;30.63;;;;;;;;;;5037823;28;20496;-50
2021/12/24 15:40:51;;;;;;;198.45;51.63;;;;;;;;;;5032761;28;20979;-50
2021/12/24 15:43:18;;;;;;;57.72;14.13;;;;;;;;;;5030210;28;20451;-50
2021/12/24 15:45:44;;;;;;;78.97;19.10;;;;;;;;;;5030255;28;20035;-50
2021/12/24 15:48:10;;;;;;;50.97;15.65;;;;;;;;;;5037190;28;20108;-52
2021/12/24 15:50:36;;;;;;;58.72;14.05;;;;;;;;;;5032650;28;21036;-51
2021/12/24 15:53:03;;;;;;;67.95;21.20;;;;;;;;;;5030757;28;20137;-51
2021/12/24 15:55:32;;;;;;;49.65;11.00;;;;;;;;;;5030045;28;20491;-53
2021/12/24 15:57:58;;;;;;;73.20;13.50;;;;;;;;;;5033162;28;20108;-53
2021/12/24 16:00:24;;;;;;;48.03;16.42;;;;;;;;;;5036973;28;20504;-53
2021/12/24 16:02:49;;;;;;;52.10;10.25;;;;;;;;;;5029455;28;20117;-54
2021/12/24 16:05:16;;;;;;;70.68;14.10;;;;;;;;;;5031730;28;20041;-53
2021/12/24 16:07:41;;;;;;;64.13;13.43;;;;;;;;;;5026482;28;20109;-53
2021/12/24 16:10:07;;;;;;;61.75;21.63;;;;;;;;;;5030304;28;20102;-53
2021/12/24 16:12:33;;;;;;;43.55;8.10;;;;;;;;;;5039401;28;20041;-54
2021/12/24 16:15:00;;;;;;;49.42;11.55;;;;;;;;;;5033084;28;20148;-55
2021/12/24 16:17:25;;;;;;;38.42;11.52;;;;;;;;;;5032738;28;20034;-52
2021/12/24 16:19:51;;;;;;;28.20;6.45;;;;;;;;;;5031315;28;20056;-51
2021/12/24 16:22:18;;;;;;;39.85;9.63;;;;;;;;;;5034035;28;20037;-52
2021/12/24 16:24:44;;;;;;;40.05;8.18;;;;;;;;;;5039025;28;20029;-51
2021/12/24 16:27:10;;;;;;;24.60;7.13;;;;;;;;;;5032063;28;20369;-50